Cassatt, South Carolina
Current Conditions -  °F | °C
As of 1:55 AM on Monday 24 Nov 2014 (Local Time) from KCDN Reporting Station
Broken Clouds Broken Clouds  
Wind Chill: 64°   Ceiling: 1600
Heat Index: 64°   Visibility: 10mi
Dew Point: 63°   Wind: 10mph
Humidity: 94%   Direction: 230°SW
Pressure: 29.78"   Gusts: 18mph
Location:  34.36°N, 80.44°W
Report Text: KCDN 240655Z AUTO 23009G16KT 10SM BKN016 18/17 A2978 RMK AO2 TSNO
Loading
Personal Weather Stations






























Interactive Weather Map New forecast layout! Learn more

10-Day Weather Forecast

Advertisements
Track Severe Weather on mobile